createdAt,value
2022-10-02T00:05:07.530Z,87.60
2022-10-02T00:13:21.484Z,87.40
2022-10-02T00:21:39.151Z,87.00
2022-10-02T00:29:52.658Z,86.80
2022-10-02T00:38:04.320Z,86.50
2022-10-02T00:46:29.807Z,86.40
2022-10-02T00:54:58.522Z,86.10
2022-10-02T01:03:21.247Z,86.00
2022-10-02T01:11:30.791Z,86.10
2022-10-02T01:19:42.375Z,86.70
2022-10-02T01:27:50.836Z,87.00
2022-10-02T01:35:56.146Z,87.30
2022-10-02T01:44:05.468Z,87.60
2022-10-02T01:52:41.241Z,87.60
2022-10-02T02:01:08.257Z,88.50
2022-10-02T02:09:20.185Z,88.40
2022-10-02T02:17:34.604Z,87.80
2022-10-02T02:25:45.347Z,86.70
2022-10-02T02:33:57.545Z,86.20
2022-10-02T02:42:06.659Z,84.80
2022-10-02T02:50:21.537Z,83.90
2022-10-02T02:58:34.862Z,83.40
2022-10-02T03:06:43.530Z,82.90
2022-10-02T03:15:27.248Z,82.00
2022-10-02T03:23:37.397Z,81.80
2022-10-02T03:31:44.196Z,83.00
2022-10-02T03:39:53.109Z,83.70
2022-10-02T03:47:58.390Z,84.20
2022-10-02T03:56:10.757Z,84.00
2022-10-02T04:04:19.276Z,84.90
2022-10-02T04:12:32.241Z,85.80
2022-10-02T04:20:44.561Z,85.70
2022-10-02T04:28:57.578Z,85.00
2022-10-02T04:37:14.295Z,84.10
2022-10-02T04:45:33.203Z,84.40
2022-10-02T04:53:53.252Z,84.50
2022-10-02T05:02:15.974Z,83.90
2022-10-02T05:10:44.134Z,83.00
2022-10-02T05:19:08.839Z,83.30
2022-10-02T05:27:39.237Z,83.30
2022-10-02T05:36:01.529Z,82.40
2022-10-02T05:44:15.358Z,83.40
2022-10-02T05:52:27.691Z,83.50
2022-10-02T06:00:40.512Z,85.10
2022-10-02T06:08:54.619Z,84.20
2022-10-02T06:17:04.359Z,84.10
2022-10-02T06:25:20.379Z,83.30
2022-10-02T06:33:28.336Z,83.60
2022-10-02T06:41:45.475Z,81.80
2022-10-02T06:50:07.807Z,79.80
2022-10-02T06:58:34.366Z,79.30
2022-10-02T07:06:48.039Z,76.60
2022-10-02T07:15:22.086Z,75.80
2022-10-02T07:23:44.086Z,75.40
2022-10-02T07:32:04.638Z,74.20
2022-10-02T07:40:30.144Z,74.10
2022-10-02T07:48:59.090Z,74.20
2022-10-02T07:57:21.863Z,74.10
2022-10-02T08:05:36.595Z,74.00
2022-10-02T08:13:46.464Z,73.10
2022-10-02T08:22:25.072Z,73.10
2022-10-02T08:30:30.553Z,74.40
2022-10-02T08:38:54.504Z,74.60
2022-10-02T08:47:33.337Z,76.10
2022-10-02T08:55:52.265Z,75.30
2022-10-02T09:04:38.371Z,73.00
2022-10-02T09:13:22.902Z,73.10
2022-10-02T09:21:51.705Z,71.80
2022-10-02T09:30:29.917Z,70.20
2022-10-02T09:39:16.494Z,67.30
2022-10-02T09:48:05.235Z,52.80
2022-10-02T09:56:41.337Z,41.60
2022-10-02T10:05:15.722Z,37.90
2022-10-02T10:13:47.714Z,34.10
2022-10-02T10:22:46.034Z,36.40
2022-10-02T10:31:40.942Z,35.30
2022-10-02T10:40:10.014Z,36.40
2022-10-02T10:48:37.834Z,33.40
2022-10-02T10:56:46.466Z,32.30
2022-10-02T11:05:08.725Z,31.40
2022-10-02T11:13:41.957Z,31.00
2022-10-02T11:22:31.007Z,31.00
2022-10-02T11:30:50.003Z,31.20
2022-10-02T11:39:15.187Z,40.20
2022-10-02T11:47:46.828Z,48.70
2022-10-02T11:56:09.093Z,54.10
2022-10-02T12:04:32.254Z,57.20
2022-10-02T12:12:51.714Z,58.50
2022-10-02T12:21:30.292Z,59.30
2022-10-02T12:29:52.256Z,60.90
2022-10-02T12:38:07.447Z,61.40
2022-10-02T12:46:42.395Z,62.10
2022-10-02T12:55:19.378Z,61.00
2022-10-02T13:04:06.179Z,61.70
2022-10-02T13:12:32.597Z,61.60
2022-10-02T13:20:49.608Z,61.90
2022-10-02T13:29:21.072Z,62.40
2022-10-02T13:37:40.540Z,63.50
2022-10-02T13:45:53.347Z,64.20
2022-10-02T13:54:18.687Z,63.40
2022-10-02T14:02:48.567Z,65.40
2022-10-02T14:11:10.035Z,66.60
2022-10-02T14:19:32.312Z,66.80
2022-10-02T14:28:23.124Z,66.60
2022-10-02T14:36:34.114Z,67.80
2022-10-02T14:45:04.843Z,67.20
2022-10-02T14:53:23.537Z,66.40
2022-10-02T15:01:31.947Z,64.40
2022-10-02T15:10:07.489Z,64.70
2022-10-02T15:18:27.008Z,64.50
2022-10-02T15:26:48.917Z,64.30
2022-10-02T15:35:07.629Z,65.30
2022-10-02T15:43:35.072Z,66.40
2022-10-02T15:52:02.592Z,66.60
2022-10-02T16:00:19.896Z,67.00
2022-10-02T16:08:54.683Z,67.10
2022-10-02T16:17:18.746Z,67.50
2022-10-02T16:25:38.366Z,67.00
2022-10-02T16:33:56.673Z,67.20
2022-10-02T16:42:13.631Z,66.60
2022-10-02T16:50:28.353Z,66.80
2022-10-02T16:58:42.868Z,66.20
2022-10-02T17:06:56.144Z,66.60
2022-10-02T17:15:08.250Z,66.30
2022-10-02T17:23:25.728Z,66.40
2022-10-02T17:31:39.072Z,67.10
2022-10-02T17:39:59.073Z,67.80
2022-10-02T17:48:35.587Z,68.50
2022-10-02T17:56:56.062Z,69.10
2022-10-02T18:05:22.117Z,70.00
2022-10-02T18:13:44.184Z,70.20
2022-10-02T18:22:08.285Z,70.00
2022-10-02T18:30:22.289Z,70.80
2022-10-02T18:38:34.092Z,71.60
2022-10-02T18:46:51.941Z,72.30
2022-10-02T18:55:19.244Z,73.20
2022-10-02T19:03:35.463Z,73.60
2022-10-02T19:11:47.516Z,74.50
2022-10-02T19:19:56.867Z,74.10
2022-10-02T19:28:03.804Z,74.10
2022-10-02T19:36:20.711Z,74.50
2022-10-02T19:44:30.588Z,74.50
2022-10-02T19:52:49.311Z,74.30
2022-10-02T20:00:56.746Z,74.40
2022-10-02T20:09:10.339Z,74.70
2022-10-02T20:17:17.998Z,74.60
2022-10-02T20:25:29.674Z,74.60
2022-10-02T20:33:40.450Z,74.30
2022-10-02T20:41:52.836Z,74.20
2022-10-02T20:50:24.503Z,74.50
2022-10-02T20:59:09.965Z,74.40
2022-10-02T21:07:40.916Z,74.50
2022-10-02T21:16:13.975Z,74.80
2022-10-02T21:24:49.752Z,75.00
2022-10-02T21:33:16.234Z,75.40
2022-10-02T21:41:48.741Z,75.60
2022-10-02T21:50:23.732Z,76.10
2022-10-02T21:58:58.599Z,76.40
2022-10-02T22:07:10.428Z,76.80
2022-10-02T22:15:25.241Z,76.60
2022-10-02T22:23:46.087Z,76.60
2022-10-02T22:32:34.922Z,77.20
2022-10-02T22:40:52.468Z,77.20
2022-10-02T22:49:05.952Z,77.50
2022-10-02T22:57:20.406Z,77.80
2022-10-02T23:05:33.844Z,77.90
2022-10-02T23:13:47.260Z,78.00
2022-10-02T23:21:59.680Z,78.20
2022-10-02T23:30:11.856Z,78.00
2022-10-02T23:38:23.930Z,78.80
2022-10-02T23:46:35.956Z,78.90
2022-10-02T23:54:55.466Z,78.90
